createdAt,value
2018-10-17T00:01:19.894Z,25.85
2018-10-17T00:03:50.898Z,21.42
2018-10-17T00:06:20.874Z,22.45
2018-10-17T00:08:50.900Z,20.08
2018-10-17T00:11:26.426Z,20.45
2018-10-17T00:13:57.366Z,21.77
2018-10-17T00:16:28.313Z,19.85
2018-10-17T00:18:59.309Z,23.42
2018-10-17T00:21:29.342Z,20.43
2018-10-17T00:23:59.279Z,23.15
2018-10-17T00:26:29.313Z,23.27
2018-10-17T00:28:59.340Z,25.90
2018-10-17T00:31:31.278Z,26.97
2018-10-17T00:34:01.294Z,24.23
2018-10-17T00:36:31.314Z,23.22
2018-10-17T00:39:09.101Z,21.48
2018-10-17T00:41:39.141Z,26.85
2018-10-17T00:44:22.941Z,27.00
2018-10-17T00:46:53.943Z,26.87
2018-10-17T00:49:24.930Z,23.15
2018-10-17T00:51:56.868Z,24.63
2018-10-17T00:54:28.594Z,28.50
2018-10-17T00:56:58.575Z,27.87
2018-10-17T00:59:28.610Z,24.10
2018-10-17T01:01:58.610Z,29.05
2018-10-17T01:04:32.256Z,26.00
2018-10-17T01:07:03.315Z,24.72
2018-10-17T01:09:39.019Z,26.50
2018-10-17T01:12:09.040Z,23.02
2018-10-17T01:14:44.163Z,25.55
2018-10-17T01:17:14.261Z,23.47
2018-10-17T01:19:45.115Z,22.85
2018-10-17T01:22:16.051Z,25.70
2018-10-17T01:24:46.067Z,23.77
2018-10-17T01:27:16.111Z,21.87
2018-10-17T01:29:46.066Z,22.85
2018-10-17T01:32:21.142Z,27.45
2018-10-17T01:34:52.192Z,21.70
2018-10-17T01:37:23.120Z,26.85
2018-10-17T01:39:53.118Z,23.90
2018-10-17T01:42:23.035Z,25.20
2018-10-17T01:44:56.603Z,23.07
2018-10-17T01:47:27.570Z,27.10
2018-10-17T01:49:58.394Z,24.32
2018-10-17T01:52:29.354Z,27.50
2018-10-17T01:54:59.376Z,22.87
2018-10-17T01:57:38.884Z,28.02
2018-10-17T02:00:09.692Z,28.65
2018-10-17T02:02:43.193Z,30.10
2018-10-17T02:05:16.115Z,31.30
2018-10-17T02:07:47.839Z,29.23
2018-10-17T02:10:17.647Z,30.30
2018-10-17T02:12:48.467Z,27.80
2018-10-17T02:15:22.999Z,25.60
2018-10-17T02:17:56.014Z,36.17
2018-10-17T02:20:26.827Z,22.40
2018-10-17T02:22:56.654Z,26.93
2018-10-17T02:25:26.415Z,27.27
2018-10-17T02:27:57.295Z,25.50
2018-10-17T02:30:28.128Z,23.87
2018-10-17T02:32:57.936Z,24.10
2018-10-17T02:35:29.787Z,25.12
2018-10-17T02:37:59.591Z,27.10
2018-10-17T02:40:36.515Z,24.90
2018-10-17T02:43:06.401Z,24.45
2018-10-17T02:45:36.407Z,29.02
2018-10-17T02:48:06.207Z,31.60
2018-10-17T02:50:36.048Z,28.57
2018-10-17T02:53:05.973Z,31.77
2018-10-17T02:55:35.779Z,30.12
2018-10-17T02:58:06.593Z,24.75
2018-10-17T03:00:37.403Z,27.20
2018-10-17T03:03:09.224Z,29.25
2018-10-17T03:05:39.119Z,27.17
2018-10-17T03:08:09.983Z,25.72
2018-10-17T03:10:41.835Z,33.18
2018-10-17T03:13:30.098Z,26.42
2018-10-17T03:15:59.929Z,29.12
2018-10-17T03:18:29.763Z,33.92
2018-10-17T03:21:02.780Z,31.15
2018-10-17T03:23:32.596Z,36.68
2018-10-17T03:26:04.336Z,31.35
2018-10-17T03:28:35.171Z,36.30
2018-10-17T03:31:07.142Z,31.45
2018-10-17T03:33:42.027Z,37.28
2018-10-17T03:36:25.111Z,30.62
2018-10-17T03:38:56.924Z,31.33
2018-10-17T03:41:30.012Z,30.50
2018-10-17T03:44:01.875Z,29.70
2018-10-17T03:46:34.960Z,30.82
2018-10-17T03:49:06.852Z,26.90
2018-10-17T03:51:37.885Z,25.27
2018-10-17T03:54:08.688Z,33.40
2018-10-17T03:56:39.536Z,26.68
2018-10-17T03:59:09.433Z,35.28
2018-10-17T04:01:39.167Z,27.52
2018-10-17T04:04:10.012Z,33.28
2018-10-17T04:06:40.815Z,28.27
2018-10-17T04:09:12.730Z,29.25
2018-10-17T04:11:44.543Z,30.17
2018-10-17T04:14:14.403Z,28.30
2018-10-17T04:16:55.322Z,30.77
2018-10-17T04:19:28.035Z,27.10
2018-10-17T04:21:57.847Z,29.05
2018-10-17T04:24:27.640Z,29.72
2018-10-17T04:26:57.442Z,30.00
2018-10-17T04:29:29.225Z,28.77
2018-10-17T04:32:01.063Z,27.42
2018-10-17T04:34:30.859Z,24.18
2018-10-17T04:37:00.731Z,28.87
2018-10-17T04:39:33.831Z,28.45
2018-10-17T04:42:04.751Z,28.92
2018-10-17T04:44:34.657Z,30.55
2018-10-17T04:47:10.085Z,26.68
2018-10-17T04:49:43.593Z,25.50
2018-10-17T04:52:13.384Z,25.77
2018-10-17T04:54:48.947Z,24.70
2018-10-17T04:57:20.788Z,30.85
2018-10-17T04:59:56.371Z,30.85
2018-10-17T05:02:26.246Z,34.75
2018-10-17T05:04:56.096Z,39.80
2018-10-17T05:07:29.347Z,40.48
2018-10-17T05:10:01.235Z,33.50
2018-10-17T05:12:32.055Z,32.03
2018-10-17T05:15:02.943Z,35.52
2018-10-17T05:17:46.571Z,29.42
2018-10-17T05:20:19.547Z,25.68
2018-10-17T05:22:49.402Z,31.82
2018-10-17T05:25:19.643Z,28.77
2018-10-17T05:27:53.063Z,29.10
2018-10-17T05:30:24.903Z,26.27
2018-10-17T05:32:56.794Z,30.68
2018-10-17T05:35:26.655Z,32.20
2018-10-17T05:37:57.577Z,30.95
2018-10-17T05:40:28.375Z,32.48
2018-10-17T05:43:01.267Z,34.40
2018-10-17T05:45:32.978Z,30.45
2018-10-17T05:48:02.770Z,32.38
2018-10-17T05:50:32.575Z,36.20
2018-10-17T05:53:04.587Z,33.48
2018-10-17T05:55:36.453Z,29.27
2018-10-17T05:58:07.122Z,32.28
2018-10-17T06:00:37.022Z,36.95
2018-10-17T06:03:07.179Z,30.20
2018-10-17T06:05:37.051Z,36.88
2018-10-17T06:08:08.252Z,37.70
2018-10-17T06:10:48.643Z,33.48
2018-10-17T06:13:18.521Z,40.03
2018-10-17T06:15:48.296Z,33.78
2018-10-17T06:18:18.178Z,35.55
2018-10-17T06:20:54.971Z,34.83
2018-10-17T06:23:25.755Z,32.00
2018-10-17T06:25:56.567Z,33.25
2018-10-17T06:28:27.563Z,42.67
2018-10-17T06:30:57.266Z,31.35
2018-10-17T06:33:27.056Z,34.00
2018-10-17T06:35:56.875Z,34.85
2018-10-17T06:38:27.651Z,32.33
2018-10-17T06:40:57.693Z,34.70
2018-10-17T06:43:27.850Z,33.53
2018-10-17T06:46:02.145Z,33.63
2018-10-17T06:48:42.827Z,32.93
2018-10-17T06:51:17.263Z,31.73
2018-10-17T06:53:47.035Z,34.05
2018-10-17T06:56:19.999Z,33.55
2018-10-17T06:58:49.838Z,32.95
2018-10-17T07:01:19.803Z,30.43
2018-10-17T07:03:54.651Z,24.80
2018-10-17T07:06:24.420Z,24.30
2018-10-17T07:08:55.178Z,24.70
2018-10-17T07:11:25.383Z,25.73
2018-10-17T07:13:55.151Z,23.73
2018-10-17T07:16:27.031Z,27.20
2018-10-17T07:18:57.846Z,22.90
2018-10-17T07:21:27.679Z,23.83
2018-10-17T07:23:58.531Z,28.40
2018-10-17T07:26:28.379Z,25.40
2018-10-17T07:29:01.368Z,25.70
2018-10-17T07:31:36.323Z,22.60
2018-10-17T07:34:06.175Z,23.57
2018-10-17T07:36:37.035Z,24.00
2018-10-17T07:39:09.232Z,24.10
2018-10-17T07:41:42.020Z,26.07
2018-10-17T07:44:25.932Z,23.50
2018-10-17T07:46:55.703Z,22.40
2018-10-17T07:49:28.784Z,23.27
2018-10-17T07:51:58.536Z,23.17
2018-10-17T07:54:35.072Z,29.27
2018-10-17T07:57:05.779Z,25.13
2018-10-17T07:59:35.596Z,24.47
2018-10-17T08:02:05.672Z,23.20
2018-10-17T08:04:36.471Z,29.17
2018-10-17T08:07:06.698Z,26.40
2018-10-17T08:09:36.509Z,26.07
2018-10-17T08:12:10.479Z,26.80
2018-10-17T08:14:42.765Z,27.10
2018-10-17T08:17:13.524Z,26.17
2018-10-17T08:19:48.867Z,26.20
2018-10-17T08:22:20.551Z,25.33
2018-10-17T08:24:50.295Z,29.50
2018-10-17T08:27:25.613Z,28.87
2018-10-17T08:29:55.323Z,29.37
2018-10-17T08:32:25.383Z,27.80
2018-10-17T08:34:55.351Z,34.83
2018-10-17T08:37:30.201Z,31.43
2018-10-17T08:39:59.615Z,31.77
2018-10-17T08:42:29.409Z,30.87
2018-10-17T08:45:00.331Z,29.97
2018-10-17T08:47:32.111Z,32.33
2018-10-17T08:50:02.016Z,30.30
2018-10-17T08:52:31.750Z,30.23
2018-10-17T08:55:09.467Z,30.67
2018-10-17T08:57:42.904Z,29.90
2018-10-17T09:00:18.079Z,32.03
2018-10-17T09:02:51.551Z,34.90
2018-10-17T09:05:21.411Z,31.67
2018-10-17T09:07:52.340Z,32.07
2018-10-17T09:10:23.047Z,30.80
2018-10-17T09:12:52.883Z,31.37
2018-10-17T09:15:23.719Z,30.13
2018-10-17T09:17:54.495Z,31.37
2018-10-17T09:20:24.633Z,29.43
2018-10-17T09:22:54.167Z,33.00
2018-10-17T09:25:24.016Z,30.70
2018-10-17T09:27:54.827Z,30.50
2018-10-17T09:30:25.330Z,30.20
2018-10-17T09:32:55.031Z,30.93
2018-10-17T09:35:30.149Z,31.30
2018-10-17T09:38:00.907Z,29.73
2018-10-17T09:40:33.831Z,32.17
2018-10-17T09:43:04.688Z,31.47
2018-10-17T09:45:35.380Z,30.43
2018-10-17T09:48:06.839Z,30.27
2018-10-17T09:50:36.554Z,30.73
2018-10-17T09:53:11.342Z,34.63
2018-10-17T09:55:41.173Z,32.53
2018-10-17T09:58:16.692Z,32.63
2018-10-17T10:00:59.631Z,34.40
2018-10-17T10:03:49.167Z,32.97
2018-10-17T10:06:32.503Z,33.23
2018-10-17T10:09:05.719Z,32.80
2018-10-17T10:11:39.599Z,33.93
2018-10-17T10:14:10.587Z,33.00
2018-10-17T10:16:40.367Z,34.53
2018-10-17T10:19:10.231Z,32.97
2018-10-17T10:21:41.999Z,33.27
2018-10-17T10:24:17.432Z,32.90
2018-10-17T10:26:47.135Z,32.53
2018-10-17T10:29:16.911Z,31.53
2018-10-17T10:31:50.471Z,30.77
2018-10-17T10:34:21.458Z,31.37
2018-10-17T10:36:54.231Z,31.93
2018-10-17T10:39:24.055Z,31.77
2018-10-17T10:41:53.923Z,28.30
2018-10-17T10:44:23.719Z,28.93
2018-10-17T10:46:53.639Z,28.90
2018-10-17T10:49:27.571Z,27.20
2018-10-17T10:51:57.443Z,27.53
2018-10-17T10:54:33.940Z,26.80
2018-10-17T10:57:03.870Z,28.67
2018-10-17T10:59:38.479Z,26.13
2018-10-17T11:02:12.203Z,28.30
2018-10-17T11:04:43.054Z,26.83
2018-10-17T11:07:16.059Z,30.00
2018-10-17T11:09:45.883Z,26.13
2018-10-17T11:12:15.688Z,30.90
2018-10-17T11:14:45.563Z,27.53
2018-10-17T11:17:16.319Z,26.37
2018-10-17T11:19:46.134Z,26.67
2018-10-17T11:22:15.966Z,26.73
2018-10-17T11:24:45.727Z,27.00
2018-10-17T11:27:19.140Z,22.10
2018-10-17T11:29:48.848Z,26.33
2018-10-17T11:32:18.587Z,25.60
2018-10-17T11:34:48.371Z,25.27
2018-10-17T11:37:21.812Z,25.60
2018-10-17T11:39:51.638Z,25.90
2018-10-17T11:42:24.727Z,26.70
2018-10-17T11:44:54.490Z,24.30
2018-10-17T11:47:52.858Z,26.93
2018-10-17T11:50:26.309Z,24.00
2018-10-17T11:52:56.106Z,27.07
2018-10-17T11:55:26.939Z,26.23
2018-10-17T11:57:57.683Z,24.70
2018-10-17T12:00:29.548Z,24.03
2018-10-17T12:02:59.425Z,22.40
2018-10-17T12:05:29.495Z,26.53
2018-10-17T12:07:59.037Z,18.43
2018-10-17T12:10:34.507Z,18.03
2018-10-17T12:13:07.479Z,18.33
2018-10-17T12:15:41.546Z,19.20
2018-10-17T12:18:15.131Z,19.53
2018-10-17T12:20:52.584Z,17.83
2018-10-17T12:23:26.058Z,17.17
2018-10-17T12:25:55.874Z,25.83
2018-10-17T12:28:25.727Z,18.03
2018-10-17T12:30:55.511Z,18.47
2018-10-17T12:33:26.382Z,17.77
2018-10-17T12:35:56.261Z,14.87
2018-10-17T12:38:32.584Z,17.60
2018-10-17T12:41:03.625Z,16.43
2018-10-17T12:43:33.271Z,16.80
2018-10-17T12:49:05.567Z,14.83
2018-10-17T12:51:35.426Z,16.57
2018-10-17T12:54:05.558Z,13.50
2018-10-17T12:56:43.446Z,15.37
2018-10-17T12:59:13.347Z,18.03
2018-10-17T13:01:45.166Z,26.90
2018-10-17T13:04:15.938Z,18.03
2018-10-17T13:06:45.922Z,24.93
2018-10-17T13:09:16.679Z,15.07
2018-10-17T13:11:48.510Z,15.43
2018-10-17T13:14:22.019Z,26.07
2018-10-17T13:16:52.882Z,17.23
2018-10-17T13:19:24.131Z,18.13
2018-10-17T13:21:54.018Z,18.40
2018-10-17T13:24:27.519Z,14.70
2018-10-17T13:26:58.390Z,14.40
2018-10-17T13:29:28.234Z,13.00
2018-10-17T13:31:59.110Z,14.47
2018-10-17T13:34:30.031Z,13.30
2018-10-17T13:36:59.910Z,14.97
2018-10-17T13:39:30.666Z,14.07
2018-10-17T13:42:03.739Z,14.60
2018-10-17T13:44:33.439Z,11.93
2018-10-17T13:47:04.638Z,12.30
2018-10-17T13:49:34.411Z,12.23
2018-10-17T13:52:04.334Z,13.57
2018-10-17T13:54:39.879Z,13.80
2018-10-17T13:57:09.726Z,13.70
2018-10-17T13:59:47.442Z,12.53
2018-10-17T14:02:18.229Z,13.80
2018-10-17T14:04:48.038Z,13.57
2018-10-17T14:07:17.992Z,15.27
2018-10-17T14:09:47.642Z,11.90
2018-10-17T14:12:17.562Z,14.17
2018-10-17T14:14:47.511Z,13.03
2018-10-17T14:17:17.262Z,17.33
2018-10-17T14:19:47.114Z,14.53
2018-10-17T14:22:16.978Z,12.30
2018-10-17T14:24:47.778Z,19.67
2018-10-17T14:27:17.860Z,15.20
2018-10-17T14:29:49.482Z,15.57
2018-10-17T14:32:19.393Z,16.10
2018-10-17T14:34:50.171Z,15.43
2018-10-17T14:37:19.954Z,16.17
2018-10-17T14:39:50.818Z,14.60
2018-10-17T14:42:20.783Z,15.27
2018-10-17T14:44:50.586Z,14.50
2018-10-17T14:47:21.422Z,14.50
2018-10-17T14:50:09.077Z,14.57
2018-10-17T14:52:44.258Z,13.20
2018-10-17T14:55:14.085Z,12.73
2018-10-17T14:57:44.045Z,17.23
2018-10-17T15:00:19.662Z,12.47
2018-10-17T15:02:50.475Z,14.90
2018-10-17T15:05:32.934Z,13.50
2018-10-17T15:08:12.474Z,12.93
2018-10-17T15:10:42.570Z,19.33
2018-10-17T15:13:13.074Z,12.23
2018-10-17T15:15:45.930Z,14.00
2018-10-17T15:18:28.895Z,12.53
2018-10-17T15:21:01.837Z,11.70
2018-10-17T15:23:38.276Z,22.73
2018-10-17T15:26:08.154Z,11.77
2018-10-17T15:28:37.946Z,12.20
2018-10-17T15:31:08.827Z,11.30
2018-10-17T15:33:48.246Z,13.90
2018-10-17T15:36:21.898Z,14.23
2018-10-17T15:38:52.695Z,16.50
2018-10-17T15:41:36.870Z,23.87
2018-10-17T15:44:10.181Z,13.63
2018-10-17T15:46:40.015Z,15.30
2018-10-17T15:49:25.995Z,15.87
2018-10-17T15:52:07.827Z,14.47
2018-10-17T15:54:37.915Z,18.33
2018-10-17T15:57:09.304Z,14.87
2018-10-17T15:59:44.818Z,17.00
2018-10-17T16:02:15.734Z,14.80
2018-10-17T16:04:45.447Z,19.97
2018-10-17T16:07:15.251Z,13.93
2018-10-17T16:09:48.027Z,17.77
2018-10-17T16:12:17.957Z,17.10
2018-10-17T16:14:51.155Z,17.80
2018-10-17T16:17:22.003Z,19.10
2018-10-17T16:19:52.890Z,15.90
2018-10-17T16:22:22.731Z,13.33
2018-10-17T16:24:52.571Z,23.20
2018-10-17T16:27:23.371Z,15.77
2018-10-17T16:29:53.266Z,16.83
2018-10-17T16:32:24.055Z,14.10
2018-10-17T16:34:53.844Z,17.27
2018-10-17T16:37:23.651Z,15.53
2018-10-17T16:39:53.475Z,18.77
2018-10-17T16:42:23.275Z,16.73
2018-10-17T16:44:53.071Z,13.57
2018-10-17T16:47:24.968Z,12.20
2018-10-17T16:49:55.814Z,17.67
2018-10-17T16:52:29.939Z,15.87
2018-10-17T16:55:00.803Z,20.03
2018-10-17T16:57:30.567Z,19.23
2018-10-17T17:00:08.190Z,21.57
2018-10-17T17:02:41.644Z,16.07
2018-10-17T17:05:15.312Z,14.67
2018-10-17T17:07:46.179Z,15.00
2018-10-17T17:10:16.171Z,19.07
2018-10-17T17:12:45.991Z,15.30
2018-10-17T17:15:26.499Z,17.87
2018-10-17T17:17:56.432Z,14.97
2018-10-17T17:20:29.906Z,19.07
2018-10-17T17:23:00.783Z,18.20
2018-10-17T17:25:31.650Z,16.67
2018-10-17T17:28:07.116Z,19.50
2018-10-17T17:30:40.611Z,22.20
2018-10-17T17:33:17.972Z,19.60
2018-10-17T17:35:48.843Z,22.03
2018-10-17T17:38:19.631Z,17.00
2018-10-17T17:40:53.062Z,20.00
2018-10-17T17:43:26.467Z,19.90
2018-10-17T17:45:56.316Z,18.43
2018-10-17T17:48:28.122Z,26.60
2018-10-17T17:51:00.026Z,19.27
2018-10-17T17:53:29.886Z,19.43
2018-10-17T17:56:00.743Z,20.47
2018-10-17T17:58:30.702Z,16.50
2018-10-17T18:01:00.771Z,25.03
2018-10-17T18:03:31.758Z,21.87
2018-10-17T18:06:02.663Z,19.50
2018-10-17T18:08:32.708Z,19.40
2018-10-17T18:11:19.862Z,18.20
2018-10-17T18:13:51.314Z,19.83
2018-10-17T18:16:21.196Z,19.93
2018-10-17T18:18:58.354Z,17.40
2018-10-17T18:21:28.238Z,20.10
2018-10-17T18:23:58.595Z,19.80
2018-10-17T18:26:28.632Z,21.40
2018-10-17T18:29:02.487Z,22.73
2018-10-17T18:31:33.311Z,25.63
2018-10-17T18:34:05.239Z,19.63
2018-10-17T18:36:37.075Z,21.13
2018-10-17T18:39:10.743Z,18.70
2018-10-17T18:41:41.915Z,21.50
2018-10-17T18:44:17.694Z,20.37
2018-10-17T18:46:47.551Z,20.27
2018-10-17T18:49:17.364Z,24.63
2018-10-17T18:51:50.991Z,25.70
2018-10-17T18:54:20.995Z,25.90
2018-10-17T18:56:51.841Z,24.30
2018-10-17T18:59:22.686Z,26.97
2018-10-17T19:01:52.578Z,21.50
2018-10-17T19:04:22.367Z,25.70
2018-10-17T19:06:52.246Z,20.83
2018-10-17T19:09:22.094Z,20.13
2018-10-17T19:11:52.966Z,18.93
2018-10-17T19:14:22.873Z,23.27
2018-10-17T19:16:52.674Z,23.63
2018-10-17T19:19:22.482Z,23.80
2018-10-17T19:21:52.350Z,25.10
2018-10-17T19:24:24.199Z,30.50
2018-10-17T19:26:54.103Z,31.67
2018-10-17T19:29:24.893Z,25.87
2018-10-17T19:31:55.798Z,22.60
2018-10-17T19:34:26.658Z,23.80
2018-10-17T19:36:58.577Z,26.90
2018-10-17T19:39:30.398Z,24.87
2018-10-17T19:42:03.328Z,25.43
2018-10-17T19:44:33.214Z,22.30
2018-10-17T19:47:03.078Z,22.73
2018-10-17T19:49:35.078Z,27.60
2018-10-17T19:52:05.038Z,22.83
2018-10-17T19:54:35.906Z,31.93
2018-10-17T19:57:08.271Z,23.40
2018-10-17T19:59:43.878Z,23.90
2018-10-17T20:02:15.856Z,28.10
2018-10-17T20:04:45.618Z,23.73
2018-10-17T20:07:17.466Z,22.53
2018-10-17T20:09:52.482Z,23.83
2018-10-17T20:12:33.978Z,22.20
2018-10-17T20:15:03.898Z,23.20
2018-10-17T20:17:43.833Z,24.23
2018-10-17T20:20:13.669Z,23.97
2018-10-17T20:22:46.738Z,22.73
2018-10-17T20:25:21.878Z,25.70
2018-10-17T20:27:51.898Z,31.33
2018-10-17T20:30:23.873Z,30.45
2018-10-17T20:32:53.698Z,28.20
2018-10-17T20:35:27.770Z,30.05
2018-10-17T20:38:05.701Z,32.17
2018-10-17T20:40:35.630Z,25.43
2018-10-17T20:43:06.710Z,27.62
2018-10-17T20:45:38.498Z,31.40
2018-10-17T20:48:15.407Z,26.47
2018-10-17T20:50:47.256Z,27.70
2018-10-17T20:53:17.177Z,29.37
2018-10-17T20:55:47.078Z,27.10
2018-10-17T20:58:24.136Z,24.80
2018-10-17T21:00:53.985Z,27.90
2018-10-17T21:03:27.185Z,24.70
2018-10-17T21:05:58.058Z,26.02
2018-10-17T21:08:34.596Z,26.57
2018-10-17T21:11:08.153Z,26.42
2018-10-17T21:13:42.158Z,29.30
2018-10-17T21:16:12.986Z,30.30
2018-10-17T21:18:42.903Z,29.10
2018-10-17T21:21:12.730Z,25.62
2018-10-17T21:23:46.445Z,30.00
2018-10-17T21:26:18.323Z,34.67
2018-10-17T21:28:48.194Z,26.15
2018-10-17T21:31:18.002Z,26.48
2018-10-17T21:33:52.319Z,26.05
2018-10-17T21:36:23.203Z,25.97
2018-10-17T21:38:53.086Z,25.62
2018-10-17T21:41:23.934Z,28.10
2018-10-17T21:43:54.791Z,27.93
2018-10-17T21:46:24.567Z,30.43
2018-10-17T21:48:58.690Z,27.17
2018-10-17T21:51:30.556Z,27.62
2018-10-17T21:54:01.260Z,29.30
2018-10-17T21:56:31.146Z,30.32
2018-10-17T21:59:03.094Z,32.03
2018-10-17T22:01:35.250Z,26.75
2018-10-17T22:04:06.031Z,30.40
2018-10-17T22:06:36.924Z,28.32
2018-10-17T22:09:10.760Z,28.12
2018-10-17T22:11:41.002Z,26.45
2018-10-17T22:14:10.894Z,26.87
2018-10-17T22:17:21.102Z,25.10
2018-10-17T22:19:51.912Z,28.70
2018-10-17T22:22:22.694Z,30.27
2018-10-17T22:24:53.146Z,27.90
2018-10-17T22:27:23.114Z,30.82
2018-10-17T22:29:53.265Z,30.48
2018-10-17T22:32:23.003Z,48.85
2018-10-17T22:34:52.830Z,30.10
2018-10-17T22:37:23.670Z,30.27
2018-10-17T22:39:55.526Z,30.23
2018-10-17T22:42:26.342Z,36.42
2018-10-17T22:44:56.158Z,28.75
2018-10-17T22:47:26.001Z,30.80
2018-10-17T22:49:56.840Z,31.57
2018-10-17T22:52:27.658Z,27.20
2018-10-17T22:54:57.454Z,31.70
2018-10-17T22:57:30.466Z,31.23
2018-10-17T23:00:08.848Z,27.67
2018-10-17T23:02:44.126Z,30.35
2018-10-17T23:05:21.746Z,30.95
2018-10-17T23:07:51.686Z,27.30
2018-10-17T23:10:21.462Z,29.10
2018-10-17T23:12:51.322Z,29.32
2018-10-17T23:15:24.858Z,33.18
2018-10-17T23:17:55.686Z,30.37
2018-10-17T23:20:36.982Z,30.15
2018-10-17T23:23:06.778Z,32.28
2018-10-17T23:25:37.607Z,29.45
2018-10-17T23:28:08.425Z,34.00
2018-10-17T23:30:38.630Z,31.35
2018-10-17T23:33:10.410Z,26.52
2018-10-17T23:35:40.247Z,29.45
2018-10-17T23:38:12.087Z,30.27
2018-10-17T23:40:41.934Z,27.65
2018-10-17T23:43:11.822Z,30.92
2018-10-17T23:45:43.698Z,35.50
2018-10-17T23:48:14.558Z,27.77
2018-10-17T23:50:46.531Z,28.52
2018-10-17T23:53:20.274Z,31.40
2018-10-17T23:55:50.443Z,35.48
2018-10-17T23:58:22.259Z,31.45
